sensor_id;sensor_type;location;lat;lon;timestamp;temperature;humidity
43651;DHT22;29247;50.944;5.382;2023-02-02T00:01:44;9.60;83.20
43651;DHT22;29247;50.944;5.382;2023-02-02T00:06:45;9.60;83.20
43651;DHT22;29247;50.944;5.382;2023-02-02T00:09:13;9.50;83.20
43651;DHT22;29247;50.944;5.382;2023-02-02T00:11:39;9.50;83.30
43651;DHT22;29247;50.944;5.382;2023-02-02T00:14:05;9.50;83.40
43651;DHT22;29247;50.944;5.382;2023-02-02T00:19:34;9.50;83.60
43651;DHT22;29247;50.944;5.382;2023-02-02T00:21:59;9.50;83.60
43651;DHT22;29247;50.944;5.382;2023-02-02T00:24:25;9.50;83.60
43651;DHT22;29247;50.944;5.382;2023-02-02T00:26:57;9.50;83.60
43651;DHT22;29247;50.944;5.382;2023-02-02T00:29:28;9.50;83.70
43651;DHT22;29247;50.944;5.382;2023-02-02T00:31:54;9.50;83.60
43651;DHT22;29247;50.944;5.382;2023-02-02T00:34:20;9.50;83.60
43651;DHT22;29247;50.944;5.382;2023-02-02T00:36:47;9.50;83.60
43651;DHT22;29247;50.944;5.382;2023-02-02T00:39:15;9.50;83.70
43651;DHT22;29247;50.944;5.382;2023-02-02T00:41:43;9.50;83.70
43651;DHT22;29247;50.944;5.382;2023-02-02T00:44:18;9.40;83.60
43651;DHT22;29247;50.944;5.382;2023-02-02T00:47:05;9.50;83.80
43651;DHT22;29247;50.944;5.382;2023-02-02T00:49:31;9.50;83.70
43651;DHT22;29247;50.944;5.382;2023-02-02T00:51:56;9.50;83.70
43651;DHT22;29247;50.944;5.382;2023-02-02T00:54:23;9.50;83.70
43651;DHT22;29247;50.944;5.382;2023-02-02T00:56:49;9.50;84.50
43651;DHT22;29247;50.944;5.382;2023-02-02T00:59:16;9.50;83.80
43651;DHT22;29247;50.944;5.382;2023-02-02T01:01:45;9.60;83.80
43651;DHT22;29247;50.944;5.382;2023-02-02T01:04:10;9.50;83.60
43651;DHT22;29247;50.944;5.382;2023-02-02T01:06:36;9.60;83.60
43651;DHT22;29247;50.944;5.382;2023-02-02T01:09:04;9.50;83.80
43651;DHT22;29247;50.944;5.382;2023-02-02T01:11:32;9.50;83.80
43651;DHT22;29247;50.944;5.382;2023-02-02T01:13:58;9.60;83.70
43651;DHT22;29247;50.944;5.382;2023-02-02T01:16:24;9.60;83.70
43651;DHT22;29247;50.944;5.382;2023-02-02T01:18:50;9.50;83.80
43651;DHT22;29247;50.944;5.382;2023-02-02T01:21:17;9.50;83.90
43651;DHT22;29247;50.944;5.382;2023-02-02T01:23:45;9.50;83.90
43651;DHT22;29247;50.944;5.382;2023-02-02T01:26:12;9.50;83.90
43651;DHT22;29247;50.944;5.382;2023-02-02T01:28:38;9.60;83.90
43651;DHT22;29247;50.944;5.382;2023-02-02T01:31:13;9.50;83.90
43651;DHT22;29247;50.944;5.382;2023-02-02T01:33:40;9.60;83.90
43651;DHT22;29247;50.944;5.382;2023-02-02T01:36:10;9.60;83.90
43651;DHT22;29247;50.944;5.382;2023-02-02T01:38:36;9.60;84.30
43651;DHT22;29247;50.944;5.382;2023-02-02T01:41:02;9.60;83.90
43651;DHT22;29247;50.944;5.382;2023-02-02T01:46:00;9.60;83.90
43651;DHT22;29247;50.944;5.382;2023-02-02T01:48:31;9.60;83.80
43651;DHT22;29247;50.944;5.382;2023-02-02T01:51:02;9.60;83.90
43651;DHT22;29247;50.944;5.382;2023-02-02T01:53:31;9.60;83.80
43651;DHT22;29247;50.944;5.382;2023-02-02T01:56:01;9.60;83.70
43651;DHT22;29247;50.944;5.382;2023-02-02T01:58:35;9.60;83.60
43651;DHT22;29247;50.944;5.382;2023-02-02T02:01:02;9.60;83.60
43651;DHT22;29247;50.944;5.382;2023-02-02T02:03:31;9.60;83.70
43651;DHT22;29247;50.944;5.382;2023-02-02T02:06:04;9.60;83.60
43651;DHT22;29247;50.944;5.382;2023-02-02T02:10:56;9.60;83.60
43651;DHT22;29247;50.944;5.382;2023-02-02T02:13:25;9.70;83.70
43651;DHT22;29247;50.944;5.382;2023-02-02T02:16:34;9.60;83.50
43651;DHT22;29247;50.944;5.382;2023-02-02T02:33:15;9.70;83.70
43651;DHT22;29247;50.944;5.382;2023-02-02T02:36:01;9.60;83.60
43651;DHT22;29247;50.944;5.382;2023-02-02T02:38:44;9.70;83.80
43651;DHT22;29247;50.944;5.382;2023-02-02T02:41:17;9.70;83.70
43651;DHT22;29247;50.944;5.382;2023-02-02T02:44:05;9.70;83.70
43651;DHT22;29247;50.944;5.382;2023-02-02T02:46:36;9.60;83.60
43651;DHT22;29247;50.944;5.382;2023-02-02T02:49:02;9.60;83.60
43651;DHT22;29247;50.944;5.382;2023-02-02T02:51:54;9.70;83.70
43651;DHT22;29247;50.944;5.382;2023-02-02T03:08:34;9.70;83.60
43651;DHT22;29247;50.944;5.382;2023-02-02T03:11:03;9.70;83.70
43651;DHT22;29247;50.944;5.382;2023-02-02T03:13:33;9.70;83.60
43651;DHT22;29247;50.944;5.382;2023-02-02T03:15:59;9.70;83.70
43651;DHT22;29247;50.944;5.382;2023-02-02T03:18:30;9.70;83.70
43651;DHT22;29247;50.944;5.382;2023-02-02T03:21:00;9.70;83.70
43651;DHT22;29247;50.944;5.382;2023-02-02T03:23:25;9.70;83.60
43651;DHT22;29247;50.944;5.382;2023-02-02T03:25:51;9.70;83.60
43651;DHT22;29247;50.944;5.382;2023-02-02T03:28:18;9.70;83.50
43651;DHT22;29247;50.944;5.382;2023-02-02T03:30:45;9.70;83.50
43651;DHT22;29247;50.944;5.382;2023-02-02T03:33:12;9.70;83.40
43651;DHT22;29247;50.944;5.382;2023-02-02T03:35:38;9.70;83.40
43651;DHT22;29247;50.944;5.382;2023-02-02T03:38:04;9.70;83.40
43651;DHT22;29247;50.944;5.382;2023-02-02T03:40:29;9.70;83.40
43651;DHT22;29247;50.944;5.382;2023-02-02T03:42:55;9.70;83.30
43651;DHT22;29247;50.944;5.382;2023-02-02T03:45:21;9.70;83.30
43651;DHT22;29247;50.944;5.382;2023-02-02T03:47:47;9.70;83.40
43651;DHT22;29247;50.944;5.382;2023-02-02T03:50:13;9.70;83.30
43651;DHT22;29247;50.944;5.382;2023-02-02T03:52:41;9.70;83.40
43651;DHT22;29247;50.944;5.382;2023-02-02T03:55:07;9.70;83.40
43651;DHT22;29247;50.944;5.382;2023-02-02T03:57:33;9.70;83.30
43651;DHT22;29247;50.944;5.382;2023-02-02T03:59:59;9.70;83.30
43651;DHT22;29247;50.944;5.382;2023-02-02T04:02:24;9.70;83.40
43651;DHT22;29247;50.944;5.382;2023-02-02T04:04:50;9.70;83.40
43651;DHT22;29247;50.944;5.382;2023-02-02T04:07:18;9.70;83.40
43651;DHT22;29247;50.944;5.382;2023-02-02T04:09:44;9.70;83.40
43651;DHT22;29247;50.944;5.382;2023-02-02T04:12:12;9.70;83.40
43651;DHT22;29247;50.944;5.382;2023-02-02T04:14:38;9.70;83.50
43651;DHT22;29247;50.944;5.382;2023-02-02T04:17:06;9.70;83.50
43651;DHT22;29247;50.944;5.382;2023-02-02T04:19:32;9.70;83.50
43651;DHT22;29247;50.944;5.382;2023-02-02T04:21:58;9.70;83.50
43651;DHT22;29247;50.944;5.382;2023-02-02T04:24:26;9.70;83.50
43651;DHT22;29247;50.944;5.382;2023-02-02T04:26:54;9.70;83.50
43651;DHT22;29247;50.944;5.382;2023-02-02T04:29:20;9.70;83.60
43651;DHT22;29247;50.944;5.382;2023-02-02T04:31:48;9.70;83.60
43651;DHT22;29247;50.944;5.382;2023-02-02T04:34:13;9.70;83.70
43651;DHT22;29247;50.944;5.382;2023-02-02T04:36:43;9.70;83.90
43651;DHT22;29247;50.944;5.382;2023-02-02T04:39:10;9.70;84.00
43651;DHT22;29247;50.944;5.382;2023-02-02T04:41:38;9.70;84.10
43651;DHT22;29247;50.944;5.382;2023-02-02T04:44:13;9.70;84.10
43651;DHT22;29247;50.944;5.382;2023-02-02T04:47:01;9.70;85.00
43651;DHT22;29247;50.944;5.382;2023-02-02T04:49:27;9.70;84.20
43651;DHT22;29247;50.944;5.382;2023-02-02T04:51:55;9.70;84.30
43651;DHT22;29247;50.944;5.382;2023-02-02T04:54:23;9.70;84.30
43651;DHT22;29247;50.944;5.382;2023-02-02T04:56:49;9.70;84.40
43651;DHT22;29247;50.944;5.382;2023-02-02T04:59:14;9.70;84.50
43651;DHT22;29247;50.944;5.382;2023-02-02T05:01:42;9.70;84.50
43651;DHT22;29247;50.944;5.382;2023-02-02T05:04:11;9.70;84.60
43651;DHT22;29247;50.944;5.382;2023-02-02T05:06:36;9.60;84.60
43651;DHT22;29247;50.944;5.382;2023-02-02T05:09:03;9.60;84.70
43651;DHT22;29247;50.944;5.382;2023-02-02T05:11:28;9.60;84.60
43651;DHT22;29247;50.944;5.382;2023-02-02T05:13:55;9.60;84.70
43651;DHT22;29247;50.944;5.382;2023-02-02T05:16:21;9.60;84.70
43651;DHT22;29247;50.944;5.382;2023-02-02T05:18:52;9.60;84.70
43651;DHT22;29247;50.944;5.382;2023-02-02T05:21:19;9.60;84.70
43651;DHT22;29247;50.944;5.382;2023-02-02T05:23:47;9.60;84.60
43651;DHT22;29247;50.944;5.382;2023-02-02T05:26:19;9.60;84.60
43651;DHT22;29247;50.944;5.382;2023-02-02T05:28:47;9.60;84.60
43651;DHT22;29247;50.944;5.382;2023-02-02T05:31:13;9.60;84.60
43651;DHT22;29247;50.944;5.382;2023-02-02T05:33:39;9.60;84.60
43651;DHT22;29247;50.944;5.382;2023-02-02T05:36:05;9.60;84.60
43651;DHT22;29247;50.944;5.382;2023-02-02T05:38:32;9.60;84.50
43651;DHT22;29247;50.944;5.382;2023-02-02T05:41:01;9.60;84.50
43651;DHT22;29247;50.944;5.382;2023-02-02T05:43:28;9.60;84.50
43651;DHT22;29247;50.944;5.382;2023-02-02T05:45:54;9.60;84.50
43651;DHT22;29247;50.944;5.382;2023-02-02T05:48:22;9.60;84.50
43651;DHT22;29247;50.944;5.382;2023-02-02T05:50:59;9.60;84.40
43651;DHT22;29247;50.944;5.382;2023-02-02T05:53:28;9.60;84.40
43651;DHT22;29247;50.944;5.382;2023-02-02T05:55:56;9.70;84.30
43651;DHT22;29247;50.944;5.382;2023-02-02T05:58:24;9.60;84.30
43651;DHT22;29247;50.944;5.382;2023-02-02T06:00:50;9.60;84.30
43651;DHT22;29247;50.944;5.382;2023-02-02T06:03:16;9.60;84.30
43651;DHT22;29247;50.944;5.382;2023-02-02T06:05:42;9.70;84.40
43651;DHT22;29247;50.944;5.382;2023-02-02T06:08:07;9.60;84.30
43651;DHT22;29247;50.944;5.382;2023-02-02T06:10:33;9.60;84.30
43651;DHT22;29247;50.944;5.382;2023-02-02T06:12:59;9.70;84.40
43651;DHT22;29247;50.944;5.382;2023-02-02T06:15:24;9.70;84.40
43651;DHT22;29247;50.944;5.382;2023-02-02T06:17:59;9.70;84.30
43651;DHT22;29247;50.944;5.382;2023-02-02T06:20:26;9.70;84.30
43651;DHT22;29247;50.944;5.382;2023-02-02T06:22:53;9.70;84.20
43651;DHT22;29247;50.944;5.382;2023-02-02T06:25:19;9.70;84.90
43651;DHT22;29247;50.944;5.382;2023-02-02T06:27:47;9.70;84.20
43651;DHT22;29247;50.944;5.382;2023-02-02T06:30:14;9.70;84.10
43651;DHT22;29247;50.944;5.382;2023-02-02T06:32:39;9.70;84.10
43651;DHT22;29247;50.944;5.382;2023-02-02T06:35:06;9.70;84.10
43651;DHT22;29247;50.944;5.382;2023-02-02T06:37:32;9.70;84.10
43651;DHT22;29247;50.944;5.382;2023-02-02T06:39:59;9.70;84.20
43651;DHT22;29247;50.944;5.382;2023-02-02T06:42:25;9.70;84.10
43651;DHT22;29247;50.944;5.382;2023-02-02T06:44:52;9.70;84.10
43651;DHT22;29247;50.944;5.382;2023-02-02T06:47:21;9.70;84.10
43651;DHT22;29247;50.944;5.382;2023-02-02T06:49:49;9.70;84.00
43651;DHT22;29247;50.944;5.382;2023-02-02T06:52:17;9.70;84.10
43651;DHT22;29247;50.944;5.382;2023-02-02T06:54:43;9.70;84.10
43651;DHT22;29247;50.944;5.382;2023-02-02T06:57:09;9.70;84.00
43651;DHT22;29247;50.944;5.382;2023-02-02T06:59:35;9.70;84.00
43651;DHT22;29247;50.944;5.382;2023-02-02T07:02:03;9.70;84.00
43651;DHT22;29247;50.944;5.382;2023-02-02T07:04:29;9.70;83.90
43651;DHT22;29247;50.944;5.382;2023-02-02T07:06:54;9.80;84.00
43651;DHT22;29247;50.944;5.382;2023-02-02T07:09:22;9.70;83.80
43651;DHT22;29247;50.944;5.382;2023-02-02T07:11:50;9.80;83.90
43651;DHT22;29247;50.944;5.382;2023-02-02T07:14:18;9.70;83.80
43651;DHT22;29247;50.944;5.382;2023-02-02T07:16:45;9.80;84.00
43651;DHT22;29247;50.944;5.382;2023-02-02T07:19:12;9.80;84.00
43651;DHT22;29247;50.944;5.382;2023-02-02T07:21:40;9.70;83.90
43651;DHT22;29247;50.944;5.382;2023-02-02T07:24:08;9.80;84.00
43651;DHT22;29247;50.944;5.382;2023-02-02T07:26:35;9.70;83.90
43651;DHT22;29247;50.944;5.382;2023-02-02T07:29:01;9.80;84.00
43651;DHT22;29247;50.944;5.382;2023-02-02T07:31:31;9.80;84.00
43651;DHT22;29247;50.944;5.382;2023-02-02T07:33:57;9.80;84.10
43651;DHT22;29247;50.944;5.382;2023-02-02T07:36:24;9.70;84.10
43651;DHT22;29247;50.944;5.382;2023-02-02T07:38:52;9.70;84.00
43651;DHT22;29247;50.944;5.382;2023-02-02T07:41:18;9.80;84.10
43651;DHT22;29247;50.944;5.382;2023-02-02T07:43:49;9.80;84.20
43651;DHT22;29247;50.944;5.382;2023-02-02T07:46:19;9.70;84.10
43651;DHT22;29247;50.944;5.382;2023-02-02T07:48:45;9.80;84.20
43651;DHT22;29247;50.944;5.382;2023-02-02T07:51:13;9.70;84.20
43651;DHT22;29247;50.944;5.382;2023-02-02T07:53:43;9.80;84.30
43651;DHT22;29247;50.944;5.382;2023-02-02T07:56:22;9.70;84.30
43651;DHT22;29247;50.944;5.382;2023-02-02T07:58:53;9.70;84.30
43651;DHT22;29247;50.944;5.382;2023-02-02T08:01:22;9.80;84.40
43651;DHT22;29247;50.944;5.382;2023-02-02T08:03:51;9.70;84.40
43651;DHT22;29247;50.944;5.382;2023-02-02T08:06:29;9.70;84.50
43651;DHT22;29247;50.944;5.382;2023-02-02T08:08:59;9.70;84.60
43651;DHT22;29247;50.944;5.382;2023-02-02T08:11:30;9.70;84.70
43651;DHT22;29247;50.944;5.382;2023-02-02T08:13:57;9.70;84.80
43651;DHT22;29247;50.944;5.382;2023-02-02T08:16:26;9.80;85.50
43651;DHT22;29247;50.944;5.382;2023-02-02T08:18:55;9.80;84.90
43651;DHT22;29247;50.944;5.382;2023-02-02T08:21:23;9.70;85.00
43651;DHT22;29247;50.944;5.382;2023-02-02T08:23:53;9.70;85.20
43651;DHT22;29247;50.944;5.382;2023-02-02T08:26:26;9.80;85.50
43651;DHT22;29247;50.944;5.382;2023-02-02T08:28:55;9.70;85.60
43651;DHT22;29247;50.944;5.382;2023-02-02T08:31:25;9.80;85.70
43651;DHT22;29247;50.944;5.382;2023-02-02T08:33:52;9.70;85.70
43651;DHT22;29247;50.944;5.382;2023-02-02T08:36:23;9.80;85.90
43651;DHT22;29247;50.944;5.382;2023-02-02T08:38:52;9.80;85.90
43651;DHT22;29247;50.944;5.382;2023-02-02T08:41:20;9.80;85.90
43651;DHT22;29247;50.944;5.382;2023-02-02T08:43:47;9.80;86.10
43651;DHT22;29247;50.944;5.382;2023-02-02T08:46:14;9.80;86.10
43651;DHT22;29247;50.944;5.382;2023-02-02T08:48:40;9.80;86.10
43651;DHT22;29247;50.944;5.382;2023-02-02T08:51:07;9.80;86.20
43651;DHT22;29247;50.944;5.382;2023-02-02T08:53:36;9.80;86.20
43651;DHT22;29247;50.944;5.382;2023-02-02T08:56:04;9.90;86.20
43651;DHT22;29247;50.944;5.382;2023-02-02T08:58:31;9.90;86.00
43651;DHT22;29247;50.944;5.382;2023-02-02T09:01:13;9.90;86.00
43651;DHT22;29247;50.944;5.382;2023-02-02T09:03:39;9.90;86.00
43651;DHT22;29247;50.944;5.382;2023-02-02T09:06:07;9.90;85.90
43651;DHT22;29247;50.944;5.382;2023-02-02T09:08:38;9.90;85.90
43651;DHT22;29247;50.944;5.382;2023-02-02T09:11:06;9.90;85.80
43651;DHT22;29247;50.944;5.382;2023-02-02T09:13:36;9.90;85.80
43651;DHT22;29247;50.944;5.382;2023-02-02T09:16:03;9.90;85.80
43651;DHT22;29247;50.944;5.382;2023-02-02T09:18:29;9.90;85.80
43651;DHT22;29247;50.944;5.382;2023-02-02T09:20:59;9.90;85.70
43651;DHT22;29247;50.944;5.382;2023-02-02T09:23:28;9.90;85.70
43651;DHT22;29247;50.944;5.382;2023-02-02T09:25:54;10.00;85.80
43651;DHT22;29247;50.944;5.382;2023-02-02T09:28:22;10.00;85.70
43651;DHT22;29247;50.944;5.382;2023-02-02T09:30:48;10.00;85.60
43651;DHT22;29247;50.944;5.382;2023-02-02T09:33:14;10.00;85.60
43651;DHT22;29247;50.944;5.382;2023-02-02T09:35:40;10.10;85.60
43651;DHT22;29247;50.944;5.382;2023-02-02T09:38:05;10.10;85.50
43651;DHT22;29247;50.944;5.382;2023-02-02T09:40:33;10.10;85.50
43651;DHT22;29247;50.944;5.382;2023-02-02T09:43:00;10.10;85.40
43651;DHT22;29247;50.944;5.382;2023-02-02T09:48:16;10.20;85.30
43651;DHT22;29247;50.944;5.382;2023-02-02T09:50:50;10.20;85.30
43651;DHT22;29247;50.944;5.382;2023-02-02T09:56:09;10.20;85.20
43651;DHT22;29247;50.944;5.382;2023-02-02T09:58:58;10.20;84.90
43651;DHT22;29247;50.944;5.382;2023-02-02T10:01:33;10.20;84.80
43651;DHT22;29247;50.944;5.382;2023-02-02T10:04:33;10.30;84.80
43651;DHT22;29247;50.944;5.382;2023-02-02T10:07:18;10.30;84.90
43651;DHT22;29247;50.944;5.382;2023-02-02T10:09:56;10.30;84.60
43651;DHT22;29247;50.944;5.382;2023-02-02T10:15:07;10.40;84.30
43651;DHT22;29247;50.944;5.382;2023-02-02T10:17:53;10.40;84.10
43651;DHT22;29247;50.944;5.382;2023-02-02T10:20:44;10.40;84.10
43651;DHT22;29247;50.944;5.382;2023-02-02T10:34:30;10.60;83.70
43651;DHT22;29247;50.944;5.382;2023-02-02T10:37:37;10.60;83.50
43651;DHT22;29247;50.944;5.382;2023-02-02T10:46:04;10.70;83.00
43651;DHT22;29247;50.944;5.382;2023-02-02T10:48:33;10.70;82.70
43651;DHT22;29247;50.944;5.382;2023-02-02T10:51:18;10.70;82.80
43651;DHT22;29247;50.944;5.382;2023-02-02T10:53:57;10.80;82.80
43651;DHT22;29247;50.944;5.382;2023-02-02T10:59:20;10.80;82.30
43651;DHT22;29247;50.944;5.382;2023-02-02T11:01:48;10.90;82.40
43651;DHT22;29247;50.944;5.382;2023-02-02T11:04:16;10.90;82.30
43651;DHT22;29247;50.944;5.382;2023-02-02T11:07:04;11.00;83.00
43651;DHT22;29247;50.944;5.382;2023-02-02T11:09:38;11.00;82.10
43651;DHT22;29247;50.944;5.382;2023-02-02T11:12:34;11.00;81.60
43651;DHT22;29247;50.944;5.382;2023-02-02T11:15:04;11.10;81.70
43651;DHT22;29247;50.944;5.382;2023-02-02T11:17:34;11.10;81.40
43651;DHT22;29247;50.944;5.382;2023-02-02T11:20:01;11.10;80.90
43651;DHT22;29247;50.944;5.382;2023-02-02T11:22:28;11.20;80.80
43651;DHT22;29247;50.944;5.382;2023-02-02T11:24:56;11.20;80.70
43651;DHT22;29247;50.944;5.382;2023-02-02T11:27:27;11.20;80.50
43651;DHT22;29247;50.944;5.382;2023-02-02T11:29:58;11.20;80.30
43651;DHT22;29247;50.944;5.382;2023-02-02T11:37:36;11.30;79.80
43651;DHT22;29247;50.944;5.382;2023-02-02T11:42:49;11.40;79.70
43651;DHT22;29247;50.944;5.382;2023-02-02T11:45:18;11.40;79.30
43651;DHT22;29247;50.944;5.382;2023-02-02T11:47:49;11.50;79.50
43651;DHT22;29247;50.944;5.382;2023-02-02T11:50:23;11.50;79.60
43651;DHT22;29247;50.944;5.382;2023-02-02T11:52:50;11.50;79.60
43651;DHT22;29247;50.944;5.382;2023-02-02T11:55:23;11.70;79.60
43651;DHT22;29247;50.944;5.382;2023-02-02T11:58:26;11.70;79.50
43651;DHT22;29247;50.944;5.382;2023-02-02T12:00:58;11.80;79.20
43651;DHT22;29247;50.944;5.382;2023-02-02T12:05:55;11.90;78.90
43651;DHT22;29247;50.944;5.382;2023-02-02T12:08:24;11.90;78.60
43651;DHT22;29247;50.944;5.382;2023-02-02T12:11:01;11.90;78.40
43651;DHT22;29247;50.944;5.382;2023-02-02T12:16:18;12.00;77.80
43651;DHT22;29247;50.944;5.382;2023-02-02T12:25:05;12.00;77.20
43651;DHT22;29247;50.944;5.382;2023-02-02T12:33:22;11.90;77.00
43651;DHT22;29247;50.944;5.382;2023-02-02T12:47:57;12.00;77.50
43651;DHT22;29247;50.944;5.382;2023-02-02T12:54:20;12.10;77.20
43651;DHT22;29247;50.944;5.382;2023-02-02T12:59:13;12.30;76.90
43651;DHT22;29247;50.944;5.382;2023-02-02T13:09:50;12.40;75.80
43651;DHT22;29247;50.944;5.382;2023-02-02T13:12:23;12.50;75.30
43651;DHT22;29247;50.944;5.382;2023-02-02T13:20:52;12.50;74.90
43651;DHT22;29247;50.944;5.382;2023-02-02T13:22:55;12.40;74.90
43651;DHT22;29247;50.944;5.382;2023-02-02T13:25:33;12.50;74.60
43651;DHT22;29247;50.944;5.382;2023-02-02T13:28:01;12.40;74.50
43651;DHT22;29247;50.944;5.382;2023-02-02T13:30:36;12.40;74.60
43651;DHT22;29247;50.944;5.382;2023-02-02T13:35:44;12.40;75.00
43651;DHT22;29247;50.944;5.382;2023-02-02T13:40:45;12.50;75.90
43651;DHT22;29247;50.944;5.382;2023-02-02T13:46:05;12.80;75.30
43651;DHT22;29247;50.944;5.382;2023-02-02T13:54:18;13.10;74.30
43651;DHT22;29247;50.944;5.382;2023-02-02T14:02:57;13.20;73.70
43651;DHT22;29247;50.944;5.382;2023-02-02T14:05:34;13.20;73.60
43651;DHT22;29247;50.944;5.382;2023-02-02T14:08:07;13.10;73.20
43651;DHT22;29247;50.944;5.382;2023-02-02T14:10:43;13.10;72.90
43651;DHT22;29247;50.944;5.382;2023-02-02T14:16:05;13.00;73.00
43651;DHT22;29247;50.944;5.382;2023-02-02T14:18:50;13.00;73.30
43651;DHT22;29247;50.944;5.382;2023-02-02T14:26:48;12.90;73.30
43651;DHT22;29247;50.944;5.382;2023-02-02T14:31:58;12.80;73.30
43651;DHT22;29247;50.944;5.382;2023-02-02T14:34:27;12.70;73.30
43651;DHT22;29247;50.944;5.382;2023-02-02T14:42:25;12.60;73.60
43651;DHT22;29247;50.944;5.382;2023-02-02T14:47:56;12.50;73.70
43651;DHT22;29247;50.944;5.382;2023-02-02T14:53:51;12.50;73.80
43651;DHT22;29247;50.944;5.382;2023-02-02T14:56:13;12.50;73.90
43651;DHT22;29247;50.944;5.382;2023-02-02T14:59:17;12.40;73.80
43651;DHT22;29247;50.944;5.382;2023-02-02T15:04:28;12.40;74.20
43651;DHT22;29247;50.944;5.382;2023-02-02T15:06:57;12.30;74.30
43651;DHT22;29247;50.944;5.382;2023-02-02T15:09:43;12.30;74.30
43651;DHT22;29247;50.944;5.382;2023-02-02T15:12:21;12.30;74.40
43651;DHT22;29247;50.944;5.382;2023-02-02T15:28:31;12.10;75.10
43651;DHT22;29247;50.944;5.382;2023-02-02T15:33:46;12.10;75.30
43651;DHT22;29247;50.944;5.382;2023-02-02T15:36:30;12.00;75.40
43651;DHT22;29247;50.944;5.382;2023-02-02T15:39:07;12.00;75.60
43651;DHT22;29247;50.944;5.382;2023-02-02T15:41:42;12.00;75.70
43651;DHT22;29247;50.944;5.382;2023-02-02T15:44:19;12.00;75.90
43651;DHT22;29247;50.944;5.382;2023-02-02T15:46:46;12.00;76.00
43651;DHT22;29247;50.944;5.382;2023-02-02T15:49:27;11.90;76.00
43651;DHT22;29247;50.944;5.382;2023-02-02T15:51:58;11.90;76.30
43651;DHT22;29247;50.944;5.382;2023-02-02T15:54:28;11.90;76.40
43651;DHT22;29247;50.944;5.382;2023-02-02T15:56:58;11.90;76.50
43651;DHT22;29247;50.944;5.382;2023-02-02T15:59:27;11.90;76.60
43651;DHT22;29247;50.944;5.382;2023-02-02T16:04:42;11.90;76.90
43651;DHT22;29247;50.944;5.382;2023-02-02T16:07:16;11.90;77.00
43651;DHT22;29247;50.944;5.382;2023-02-02T16:09:48;11.80;77.10
43651;DHT22;29247;50.944;5.382;2023-02-02T16:12:18;11.80;77.30
43651;DHT22;29247;50.944;5.382;2023-02-02T16:14:47;11.80;77.30
43651;DHT22;29247;50.944;5.382;2023-02-02T16:17:26;11.80;77.50
43651;DHT22;29247;50.944;5.382;2023-02-02T16:20:03;11.80;77.70
43651;DHT22;29247;50.944;5.382;2023-02-02T16:22:32;11.80;77.70
43651;DHT22;29247;50.944;5.382;2023-02-02T16:25:02;11.80;77.90
43651;DHT22;29247;50.944;5.382;2023-02-02T16:27:30;11.80;78.10
43651;DHT22;29247;50.944;5.382;2023-02-02T16:30:05;11.80;78.20
43651;DHT22;29247;50.944;5.382;2023-02-02T16:32:34;11.70;78.30
43651;DHT22;29247;50.944;5.382;2023-02-02T16:35:03;11.70;79.20
43651;DHT22;29247;50.944;5.382;2023-02-02T16:37:32;11.70;78.60
43651;DHT22;29247;50.944;5.382;2023-02-02T16:40:25;11.70;78.70
43651;DHT22;29247;50.944;5.382;2023-02-02T16:51:22;11.70;79.30
43651;DHT22;29247;50.944;5.382;2023-02-02T16:56:38;11.60;79.50
43651;DHT22;29247;50.944;5.382;2023-02-02T16:59:30;11.60;79.50
43651;DHT22;29247;50.944;5.382;2023-02-02T17:02:29;11.60;79.70
43651;DHT22;29247;50.944;5.382;2023-02-02T17:05:14;11.60;79.70
43651;DHT22;29247;50.944;5.382;2023-02-02T17:07:55;11.60;79.80
43651;DHT22;29247;50.944;5.382;2023-02-02T17:10:40;11.60;80.00
43651;DHT22;29247;50.944;5.382;2023-02-02T17:16:01;11.50;80.10
43651;DHT22;29247;50.944;5.382;2023-02-02T17:18:26;11.50;80.00
43651;DHT22;29247;50.944;5.382;2023-02-02T17:20:55;11.50;80.20
43651;DHT22;29247;50.944;5.382;2023-02-02T17:23:30;11.50;80.30
43651;DHT22;29247;50.944;5.382;2023-02-02T17:25:56;11.50;80.30
43651;DHT22;29247;50.944;5.382;2023-02-02T17:28:27;11.50;80.40
43651;DHT22;29247;50.944;5.382;2023-02-02T17:30:59;11.50;80.50
43651;DHT22;29247;50.944;5.382;2023-02-02T17:33:26;11.50;80.50
43651;DHT22;29247;50.944;5.382;2023-02-02T17:35:53;11.50;80.50
43651;DHT22;29247;50.944;5.382;2023-02-02T17:38:19;11.50;81.30
43651;DHT22;29247;50.944;5.382;2023-02-02T17:40:46;11.50;80.60
43651;DHT22;29247;50.944;5.382;2023-02-02T17:43:12;11.50;80.60
43651;DHT22;29247;50.944;5.382;2023-02-02T17:45:41;11.50;80.70
43651;DHT22;29247;50.944;5.382;2023-02-02T17:48:12;11.50;80.70
43651;DHT22;29247;50.944;5.382;2023-02-02T17:50:41;11.50;80.80
43651;DHT22;29247;50.944;5.382;2023-02-02T17:53:15;11.50;80.80
43651;DHT22;29247;50.944;5.382;2023-02-02T17:55:42;11.50;80.80
43651;DHT22;29247;50.944;5.382;2023-02-02T17:58:09;11.40;80.70
43651;DHT22;29247;50.944;5.382;2023-02-02T18:00:40;11.50;80.80
43651;DHT22;29247;50.944;5.382;2023-02-02T18:03:15;11.40;81.00
43651;DHT22;29247;50.944;5.382;2023-02-02T18:05:45;11.40;81.00
43651;DHT22;29247;50.944;5.382;2023-02-02T18:08:11;11.40;81.00
43651;DHT22;29247;50.944;5.382;2023-02-02T18:10:38;11.40;80.90
43651;DHT22;29247;50.944;5.382;2023-02-02T18:13:04;11.40;81.00
43651;DHT22;29247;50.944;5.382;2023-02-02T18:15:30;11.40;81.10
43651;DHT22;29247;50.944;5.382;2023-02-02T18:17:56;11.40;81.10
43651;DHT22;29247;50.944;5.382;2023-02-02T18:20:24;11.40;81.10
43651;DHT22;29247;50.944;5.382;2023-02-02T18:22:51;11.40;81.10
43651;DHT22;29247;50.944;5.382;2023-02-02T18:25:16;11.40;81.10
43651;DHT22;29247;50.944;5.382;2023-02-02T18:27:42;11.30;81.00
43651;DHT22;29247;50.944;5.382;2023-02-02T18:30:09;11.30;81.00
43651;DHT22;29247;50.944;5.382;2023-02-02T18:32:40;11.30;80.90
43651;DHT22;29247;50.944;5.382;2023-02-02T18:35:10;11.30;81.00
43651;DHT22;29247;50.944;5.382;2023-02-02T18:37:36;11.30;81.10
43651;DHT22;29247;50.944;5.382;2023-02-02T18:40:03;11.30;81.30
43651;DHT22;29247;50.944;5.382;2023-02-02T18:42:34;11.20;81.30
43651;DHT22;29247;50.944;5.382;2023-02-02T18:45:00;11.30;81.50
43651;DHT22;29247;50.944;5.382;2023-02-02T18:47:26;11.30;81.60
43651;DHT22;29247;50.944;5.382;2023-02-02T18:49:52;11.20;81.70
43651;DHT22;29247;50.944;5.382;2023-02-02T18:52:21;11.20;81.80
43651;DHT22;29247;50.944;5.382;2023-02-02T18:54:49;11.20;81.80
43651;DHT22;29247;50.944;5.382;2023-02-02T18:57:17;11.20;81.90
43651;DHT22;29247;50.944;5.382;2023-02-02T18:59:43;11.20;81.90
43651;DHT22;29247;50.944;5.382;2023-02-02T19:02:14;11.30;82.00
43651;DHT22;29247;50.944;5.382;2023-02-02T19:04:40;11.30;82.10
43651;DHT22;29247;50.944;5.382;2023-02-02T19:07:28;11.30;82.00
43651;DHT22;29247;50.944;5.382;2023-02-02T19:10:15;11.30;82.10
43651;DHT22;29247;50.944;5.382;2023-02-02T19:12:50;11.20;82.00
43651;DHT22;29247;50.944;5.382;2023-02-02T19:15:19;11.30;82.10
43651;DHT22;29247;50.944;5.382;2023-02-02T19:17:53;11.20;82.10
43651;DHT22;29247;50.944;5.382;2023-02-02T19:20:31;11.20;82.90
43651;DHT22;29247;50.944;5.382;2023-02-02T19:25:37;11.20;82.20